createdAt,value
2024-02-28T00:00:27.733Z,35.20
2024-02-28T00:02:54.671Z,35.20
2024-02-28T00:05:21.548Z,35.20
2024-02-28T00:07:49.318Z,35.20
2024-02-28T00:10:16.390Z,35.10
2024-02-28T00:12:43.383Z,35.10
2024-02-28T00:15:11.793Z,35.00
2024-02-28T00:17:42.144Z,35.10
2024-02-28T00:20:09.841Z,35.00
2024-02-28T00:22:37.840Z,35.00
2024-02-28T00:25:06.450Z,35.00
2024-02-28T00:27:34.463Z,34.90
2024-02-28T00:30:01.509Z,35.00
2024-02-28T00:32:29.277Z,34.90
2024-02-28T00:34:56.188Z,34.90
2024-02-28T00:37:23.181Z,34.90
2024-02-28T00:39:50.926Z,34.90
2024-02-28T00:42:17.998Z,34.90
2024-02-28T00:44:44.924Z,34.90
2024-02-28T00:47:11.797Z,34.90
2024-02-28T00:49:38.792Z,34.90
2024-02-28T00:52:06.345Z,34.90
2024-02-28T00:54:33.344Z,34.90
2024-02-28T00:57:01.001Z,34.80
2024-02-28T00:59:28.022Z,34.70
2024-02-28T01:01:55.008Z,34.70
2024-02-28T01:04:21.972Z,34.60
2024-02-28T01:06:49.184Z,34.50
2024-02-28T01:09:16.156Z,34.50
2024-02-28T01:11:43.091Z,34.50
2024-02-28T01:14:10.185Z,34.50
2024-02-28T01:16:37.120Z,34.40
2024-02-28T01:19:04.265Z,34.40
2024-02-28T01:21:31.288Z,34.40
2024-02-28T01:23:58.195Z,34.40
2024-02-28T01:26:25.088Z,34.40
2024-02-28T01:28:52.144Z,34.40
2024-02-28T01:31:19.155Z,34.50
2024-02-28T01:33:46.196Z,34.60
2024-02-28T01:36:13.288Z,34.50
2024-02-28T01:38:40.289Z,34.60
2024-02-28T01:41:07.226Z,34.60
2024-02-28T01:43:34.285Z,34.60
2024-02-28T01:46:02.665Z,34.60
2024-02-28T01:48:30.944Z,34.60
2024-02-28T01:50:58.155Z,34.70
2024-02-28T01:53:25.093Z,34.70
2024-02-28T01:55:53.044Z,34.80
2024-02-28T01:58:20.550Z,34.80
2024-02-28T02:00:48.802Z,34.80
2024-02-28T02:03:16.641Z,34.80
2024-02-28T02:05:44.443Z,34.90
2024-02-28T02:08:11.462Z,35.00
2024-02-28T02:10:38.404Z,35.00
2024-02-28T02:13:08.793Z,35.00
2024-02-28T02:15:35.925Z,35.00
2024-02-28T02:18:03.435Z,35.00
2024-02-28T02:20:33.266Z,35.00
2024-02-28T02:23:01.103Z,34.90
2024-02-28T02:25:28.111Z,34.90
2024-02-28T02:27:55.052Z,34.90
2024-02-28T02:30:22.073Z,34.90
2024-02-28T02:32:49.073Z,34.80
2024-02-28T02:35:16.069Z,34.80
2024-02-28T02:37:47.006Z,34.80
2024-02-28T02:40:14.002Z,34.80
2024-02-28T02:42:40.936Z,34.80
2024-02-28T02:45:08.055Z,34.80
2024-02-28T02:47:35.129Z,34.90
2024-02-28T02:50:02.125Z,34.90
2024-02-28T02:52:30.137Z,34.90
2024-02-28T02:54:57.091Z,35.00
2024-02-28T02:57:24.044Z,35.00
2024-02-28T02:59:50.969Z,35.10
2024-02-28T03:02:17.885Z,35.80
2024-02-28T03:04:44.821Z,35.00
2024-02-28T03:07:11.714Z,35.00
2024-02-28T03:09:38.710Z,34.90
2024-02-28T03:12:05.712Z,34.80
2024-02-28T03:14:32.610Z,34.80
2024-02-28T03:16:59.476Z,34.70
2024-02-28T03:19:26.408Z,34.50
2024-02-28T03:21:53.375Z,34.40
2024-02-28T03:24:20.761Z,34.40
2024-02-28T03:26:47.855Z,34.40
2024-02-28T03:29:15.064Z,34.40
2024-02-28T03:31:42.430Z,34.40
2024-02-28T03:34:09.576Z,34.40
2024-02-28T03:36:37.851Z,34.50
2024-02-28T03:39:05.064Z,34.60
2024-02-28T03:41:32.296Z,34.50
2024-02-28T03:43:59.483Z,34.60
2024-02-28T03:46:26.954Z,34.50
2024-02-28T03:48:54.316Z,34.40
2024-02-28T03:51:21.261Z,34.30
2024-02-28T03:53:48.446Z,34.20
2024-02-28T03:56:25.789Z,34.10
2024-02-28T03:58:53.661Z,34.00
2024-02-28T04:01:20.809Z,34.00
2024-02-28T04:03:47.868Z,33.90
2024-02-28T04:06:14.912Z,33.90
2024-02-28T04:08:42.918Z,33.90
2024-02-28T04:11:09.959Z,33.90
2024-02-28T04:13:38.647Z,33.90
2024-02-28T04:16:05.670Z,33.90
2024-02-28T04:18:32.654Z,33.90
2024-02-28T04:21:00.085Z,34.00
2024-02-28T04:23:27.050Z,34.00
2024-02-28T04:25:53.989Z,33.90
2024-02-28T04:28:20.959Z,33.90
2024-02-28T04:30:48.137Z,33.80
2024-02-28T04:33:15.329Z,33.70
2024-02-28T04:35:42.334Z,33.70
2024-02-28T04:38:09.764Z,33.70
2024-02-28T04:40:37.611Z,33.80
2024-02-28T04:43:05.031Z,33.80
2024-02-28T04:45:32.160Z,33.90
2024-02-28T04:47:59.233Z,34.00
2024-02-28T04:50:26.250Z,34.10
2024-02-28T04:52:53.298Z,34.20
2024-02-28T04:55:20.234Z,34.40
2024-02-28T04:57:48.243Z,34.40
2024-02-28T05:00:15.580Z,34.50
2024-02-28T05:02:42.537Z,34.60
2024-02-28T05:05:09.464Z,34.70
2024-02-28T05:07:36.626Z,34.70
2024-02-28T05:10:04.085Z,34.60
2024-02-28T05:12:31.420Z,34.50
2024-02-28T05:14:58.320Z,34.50
2024-02-28T05:17:25.360Z,34.40
2024-02-28T05:19:52.340Z,34.30
2024-02-28T05:22:19.273Z,34.20
2024-02-28T05:24:50.458Z,34.20
2024-02-28T05:27:17.385Z,34.20
2024-02-28T05:29:44.334Z,34.10
2024-02-28T05:32:11.330Z,34.90
2024-02-28T05:34:38.260Z,34.20
2024-02-28T05:37:05.189Z,34.20
2024-02-28T05:39:32.169Z,34.30
2024-02-28T05:41:59.425Z,34.40
2024-02-28T05:44:26.462Z,34.40
2024-02-28T05:46:53.490Z,34.40
2024-02-28T05:49:20.424Z,34.40
2024-02-28T05:51:48.451Z,34.40
2024-02-28T05:54:15.704Z,34.40
2024-02-28T05:56:42.817Z,34.40
2024-02-28T05:59:09.964Z,34.30
2024-02-28T06:01:37.006Z,34.30
2024-02-28T06:04:04.436Z,34.20
2024-02-28T06:06:31.843Z,34.20
2024-02-28T06:08:59.024Z,34.10
2024-02-28T06:11:26.114Z,34.10
2024-02-28T06:13:53.084Z,34.10
2024-02-28T06:16:20.064Z,34.10
2024-02-28T06:18:47.444Z,34.10
2024-02-28T06:21:14.767Z,34.20
2024-02-28T06:23:42.003Z,34.20
2024-02-28T06:26:15.877Z,34.20
2024-02-28T06:28:43.983Z,34.20
2024-02-28T06:31:15.645Z,34.20
2024-02-28T06:33:42.858Z,34.10
2024-02-28T06:36:09.861Z,34.10
2024-02-28T06:38:36.861Z,34.00
2024-02-28T06:41:04.401Z,34.00
2024-02-28T06:43:33.766Z,33.90
2024-02-28T06:46:00.804Z,33.80
2024-02-28T06:48:28.602Z,33.80
2024-02-28T06:50:55.698Z,33.80
2024-02-28T06:53:22.977Z,33.90
2024-02-28T06:55:50.192Z,33.90
2024-02-28T06:58:17.163Z,34.00
2024-02-28T07:00:44.590Z,34.00
2024-02-28T07:03:11.620Z,34.10
2024-02-28T07:05:38.742Z,34.20
2024-02-28T07:08:06.093Z,34.20
2024-02-28T07:10:33.384Z,34.30
2024-02-28T07:13:00.589Z,34.30
2024-02-28T07:15:27.648Z,34.30
2024-02-28T07:17:54.714Z,34.20
2024-02-28T07:20:21.718Z,34.00
2024-02-28T07:22:48.724Z,34.00
2024-02-28T07:25:15.648Z,33.80
2024-02-28T07:27:42.564Z,33.70
2024-02-28T07:30:09.674Z,33.50
2024-02-28T07:32:37.876Z,33.50
2024-02-28T07:35:05.102Z,33.50
2024-02-28T07:37:32.114Z,33.50
2024-02-28T07:39:59.168Z,33.50
2024-02-28T07:42:26.305Z,33.50
2024-02-28T07:44:57.694Z,33.50
2024-02-28T07:47:24.758Z,33.60
2024-02-28T07:49:51.851Z,33.80
2024-02-28T07:52:18.863Z,33.70
2024-02-28T07:54:45.793Z,33.70
2024-02-28T07:57:13.027Z,33.80
2024-02-28T07:59:41.299Z,33.90
2024-02-28T08:02:08.615Z,33.90
2024-02-28T08:04:35.660Z,33.90
2024-02-28T08:07:02.582Z,33.90
2024-02-28T08:09:29.882Z,33.90
2024-02-28T08:11:58.989Z,33.80
2024-02-28T08:14:26.245Z,34.00
2024-02-28T08:16:53.183Z,34.00
2024-02-28T08:19:20.108Z,34.10
2024-02-28T08:21:47.104Z,34.10
2024-02-28T08:24:14.105Z,34.20
2024-02-28T08:26:42.117Z,34.30
2024-02-28T08:29:09.101Z,34.40
2024-02-28T08:31:40.735Z,34.30
2024-02-28T08:34:07.783Z,34.20
2024-02-28T08:36:34.812Z,34.30
2024-02-28T08:39:01.835Z,34.10
2024-02-28T08:41:29.289Z,34.10
2024-02-28T08:43:56.496Z,33.90
2024-02-28T08:46:23.432Z,33.90
2024-02-28T08:48:50.989Z,33.80
2024-02-28T08:51:18.072Z,33.70
2024-02-28T08:53:45.180Z,33.60
2024-02-28T08:56:12.632Z,33.70
2024-02-28T08:58:39.827Z,33.60
2024-02-28T09:01:07.187Z,33.70
2024-02-28T09:03:34.340Z,33.80
2024-02-28T09:06:01.289Z,33.90
2024-02-28T09:08:28.855Z,33.90
2024-02-28T09:10:55.723Z,34.00
2024-02-28T09:13:22.816Z,33.90
2024-02-28T09:15:52.104Z,33.90
2024-02-28T09:18:20.669Z,34.00
2024-02-28T09:20:47.547Z,34.00
2024-02-28T09:23:15.556Z,34.00
2024-02-28T09:25:43.057Z,33.90
2024-02-28T09:28:13.823Z,33.90
2024-02-28T09:30:46.118Z,33.90
2024-02-28T09:33:20.771Z,33.90
2024-02-28T09:35:47.915Z,33.90
2024-02-28T09:38:14.918Z,33.90
2024-02-28T09:40:43.167Z,33.80
2024-02-28T09:43:14.210Z,33.80
2024-02-28T09:45:42.052Z,33.80
2024-02-28T09:48:10.249Z,33.80
2024-02-28T09:50:37.841Z,33.90
2024-02-28T09:53:10.365Z,34.00
2024-02-28T09:55:38.193Z,34.00
2024-02-28T09:58:05.484Z,34.10
2024-02-28T10:00:33.608Z,34.20
2024-02-28T10:03:02.105Z,34.20
2024-02-28T10:05:30.045Z,34.20
2024-02-28T10:07:57.115Z,34.30
2024-02-28T10:10:24.435Z,34.30
2024-02-28T10:12:51.420Z,34.30
2024-02-28T10:15:18.382Z,34.30
2024-02-28T10:17:45.432Z,34.30
2024-02-28T10:20:12.510Z,34.20
2024-02-28T10:22:39.998Z,34.10
2024-02-28T10:25:07.062Z,34.20
2024-02-28T10:27:35.433Z,34.10
2024-02-28T10:30:06.034Z,34.10
2024-02-28T10:32:34.991Z,34.10
2024-02-28T10:35:02.335Z,34.70
2024-02-28T10:37:31.374Z,33.90
2024-02-28T10:39:58.788Z,33.80
2024-02-28T10:42:30.655Z,33.60
2024-02-28T10:45:10.371Z,33.50
2024-02-28T10:47:47.388Z,33.40
2024-02-28T10:50:16.738Z,33.50
2024-02-28T10:52:48.192Z,33.40
2024-02-28T10:55:15.368Z,33.50
2024-02-28T10:57:43.236Z,33.40
2024-02-28T11:00:10.868Z,33.40
2024-02-28T11:02:38.159Z,33.50
2024-02-28T11:05:05.952Z,33.40
2024-02-28T11:07:33.211Z,33.30
2024-02-28T11:10:05.641Z,33.20
2024-02-28T11:12:32.930Z,33.00
2024-02-28T11:15:03.916Z,32.90
2024-02-28T11:17:33.193Z,32.80
2024-02-28T11:20:00.650Z,32.70
2024-02-28T11:22:30.851Z,32.60
2024-02-28T11:24:57.859Z,32.50
2024-02-28T11:27:25.114Z,32.40
2024-02-28T11:29:52.211Z,32.40
2024-02-28T11:32:19.115Z,32.30
2024-02-28T11:34:46.594Z,32.10
2024-02-28T11:37:13.757Z,32.10
2024-02-28T11:39:40.776Z,32.00
2024-02-28T11:42:11.606Z,32.00
2024-02-28T11:44:38.577Z,31.90
2024-02-28T11:47:05.812Z,32.00
2024-02-28T11:49:36.281Z,31.80
2024-02-28T11:52:04.219Z,31.80
2024-02-28T11:54:31.316Z,31.80
2024-02-28T11:57:00.468Z,31.70
2024-02-28T11:59:27.707Z,31.60
2024-02-28T12:01:56.857Z,31.60
2024-02-28T12:04:26.699Z,31.50
2024-02-28T12:06:53.722Z,31.50
2024-02-28T12:09:27.706Z,31.40
2024-02-28T12:12:01.356Z,31.40
2024-02-28T12:14:28.492Z,31.40
2024-02-28T12:16:58.153Z,31.50
2024-02-28T12:19:25.238Z,31.60
2024-02-28T12:21:52.207Z,31.70
2024-02-28T12:24:19.198Z,31.80
2024-02-28T12:26:46.300Z,31.90
2024-02-28T12:29:13.547Z,32.00
2024-02-28T12:31:40.503Z,32.00
2024-02-28T12:34:07.510Z,32.10
2024-02-28T12:36:35.295Z,32.20
2024-02-28T12:39:02.244Z,32.30
2024-02-28T12:41:29.471Z,32.30
2024-02-28T12:43:56.796Z,32.30
2024-02-28T12:46:23.717Z,32.30
2024-02-28T12:48:50.670Z,32.40
2024-02-28T12:51:36.177Z,32.50
2024-02-28T12:54:03.098Z,32.60
2024-02-28T12:56:30.056Z,32.60
2024-02-28T12:58:56.935Z,32.70
2024-02-28T13:01:23.921Z,32.60
2024-02-28T13:03:51.482Z,32.70
2024-02-28T13:06:18.423Z,32.70
2024-02-28T13:08:45.627Z,32.70
2024-02-28T13:11:12.971Z,32.90
2024-02-28T13:13:39.893Z,33.00
2024-02-28T13:16:06.956Z,32.90
2024-02-28T13:18:33.933Z,32.90
2024-02-28T13:21:00.875Z,32.90
2024-02-28T13:23:27.965Z,32.90
2024-02-28T13:25:54.901Z,32.80
2024-02-28T13:28:21.784Z,32.80
2024-02-28T13:30:49.745Z,32.80
2024-02-28T13:33:16.689Z,32.80
2024-02-28T13:35:43.656Z,32.70
2024-02-28T13:38:10.544Z,32.60
2024-02-28T13:40:38.692Z,32.60
2024-02-28T13:43:05.731Z,33.20
2024-02-28T13:45:32.763Z,32.40
2024-02-28T13:47:59.773Z,32.30
2024-02-28T13:50:32.563Z,32.20
2024-02-28T13:52:59.488Z,32.10
2024-02-28T13:55:26.358Z,32.00
2024-02-28T13:57:53.257Z,32.00
2024-02-28T14:00:20.233Z,31.80
2024-02-28T14:02:47.149Z,31.70
2024-02-28T14:05:14.030Z,31.70
2024-02-28T14:07:41.047Z,31.60
2024-02-28T14:10:08.297Z,31.50
2024-02-28T14:12:40.516Z,31.40
2024-02-28T14:15:08.241Z,31.40
2024-02-28T14:17:35.176Z,31.40
2024-02-28T14:20:02.102Z,31.40
2024-02-28T14:22:29.696Z,31.50
2024-02-28T14:24:57.289Z,31.50
2024-02-28T14:27:26.607Z,31.60
2024-02-28T14:29:53.516Z,31.50
2024-02-28T14:32:24.749Z,31.60
2024-02-28T14:34:58.306Z,31.60
2024-02-28T14:37:25.243Z,31.70
2024-02-28T14:39:52.744Z,31.70
2024-02-28T14:42:19.673Z,31.80
2024-02-28T14:44:46.886Z,31.90
2024-02-28T14:47:13.779Z,32.00
2024-02-28T14:49:40.801Z,32.10
2024-02-28T14:52:07.737Z,32.10
2024-02-28T14:54:34.667Z,32.30
2024-02-28T14:57:01.591Z,32.40
2024-02-28T14:59:28.681Z,32.40
2024-02-28T15:01:55.691Z,32.40
2024-02-28T15:04:22.639Z,32.40
2024-02-28T15:06:50.460Z,32.40
2024-02-28T15:09:18.268Z,32.40
2024-02-28T15:11:45.176Z,32.40
2024-02-28T15:14:12.175Z,32.40
2024-02-28T15:16:39.070Z,32.30
2024-02-28T15:19:06.010Z,32.40
2024-02-28T15:21:33.125Z,32.40
2024-02-28T15:24:00.107Z,32.30
2024-02-28T15:26:31.885Z,32.40
2024-02-28T15:29:06.540Z,32.30
2024-02-28T15:31:33.466Z,32.30
2024-02-28T15:34:00.508Z,32.30
2024-02-28T15:36:27.490Z,32.20
2024-02-28T15:38:54.437Z,32.30
2024-02-28T15:41:21.445Z,32.10
2024-02-28T15:43:48.333Z,32.10
2024-02-28T15:46:16.023Z,32.10
2024-02-28T15:48:42.942Z,32.10
2024-02-28T15:51:09.988Z,32.10
2024-02-28T15:53:38.549Z,32.10
2024-02-28T15:56:06.567Z,32.20
2024-02-28T15:58:33.948Z,32.30
2024-02-28T16:01:01.362Z,32.40
2024-02-28T16:03:28.488Z,32.60
2024-02-28T16:05:55.600Z,32.70
2024-02-28T16:08:25.041Z,32.80
2024-02-28T16:10:54.713Z,32.90
2024-02-28T16:13:21.811Z,33.00
2024-02-28T16:15:48.794Z,33.00
2024-02-28T16:18:15.905Z,33.20
2024-02-28T16:20:43.590Z,33.30
2024-02-28T16:23:10.539Z,33.30
2024-02-28T16:25:38.277Z,33.50
2024-02-28T16:28:05.695Z,33.50
2024-02-28T16:30:32.799Z,33.50
2024-02-28T16:33:00.032Z,33.60
2024-02-28T16:35:27.375Z,33.60
2024-02-28T16:37:54.292Z,33.60
2024-02-28T16:40:21.331Z,33.50
2024-02-28T16:42:48.342Z,33.50
2024-02-28T16:45:15.229Z,33.40
2024-02-28T16:47:43.521Z,33.30
2024-02-28T16:50:11.017Z,33.20
2024-02-28T16:52:38.202Z,33.20
2024-02-28T16:55:06.700Z,33.10
2024-02-28T16:57:34.019Z,33.00
2024-02-28T17:00:01.023Z,32.90
2024-02-28T17:02:27.951Z,32.90
2024-02-28T17:04:55.028Z,32.80
2024-02-28T17:07:21.981Z,32.70
2024-02-28T17:09:48.991Z,32.60
2024-02-28T17:12:16.023Z,32.60
2024-02-28T17:14:42.945Z,32.60
2024-02-28T17:17:13.295Z,32.50
2024-02-28T17:19:40.203Z,32.50
2024-02-28T17:22:08.191Z,32.50
2024-02-28T17:24:37.349Z,32.60
2024-02-28T17:27:04.505Z,32.60
2024-02-28T17:29:32.429Z,32.70
2024-02-28T17:32:02.159Z,32.90
2024-02-28T17:34:29.556Z,33.00
2024-02-28T17:36:56.551Z,33.70
2024-02-28T17:39:24.153Z,33.00
2024-02-28T17:41:51.797Z,33.80
2024-02-28T17:44:19.287Z,33.20
2024-02-28T17:46:46.264Z,33.20
2024-02-28T17:49:13.775Z,33.20
2024-02-28T17:51:43.555Z,33.20
2024-02-28T17:54:21.482Z,33.20
2024-02-28T17:56:58.931Z,33.30
2024-02-28T17:59:29.407Z,33.20
2024-02-28T18:02:00.569Z,33.20
2024-02-28T18:04:27.538Z,33.20
2024-02-28T18:06:54.506Z,33.20
2024-02-28T18:09:22.219Z,33.10
2024-02-28T18:11:49.157Z,33.00
2024-02-28T18:14:16.474Z,32.90
2024-02-28T18:16:43.629Z,32.80
2024-02-28T18:19:29.317Z,32.70
2024-02-28T18:21:57.788Z,32.60
2024-02-28T18:24:24.860Z,32.50
2024-02-28T18:26:51.892Z,32.40
2024-02-28T18:29:18.838Z,32.30
2024-02-28T18:31:45.801Z,32.20
2024-02-28T18:34:12.792Z,32.20
2024-02-28T18:36:39.839Z,32.20
2024-02-28T18:39:07.476Z,32.10
2024-02-28T18:41:34.374Z,32.20
2024-02-28T18:44:04.921Z,32.20
2024-02-28T18:46:31.838Z,32.30
2024-02-28T18:48:58.780Z,32.20
2024-02-28T18:51:26.408Z,32.30
2024-02-28T18:53:53.520Z,32.40
2024-02-28T18:56:20.444Z,32.40
2024-02-28T18:58:47.341Z,32.30
2024-02-28T19:01:18.394Z,32.20
2024-02-28T19:03:46.516Z,32.20
2024-02-28T19:06:13.594Z,32.20
2024-02-28T19:08:40.555Z,32.10
2024-02-28T19:11:07.706Z,32.20
2024-02-28T19:13:35.754Z,32.30
2024-02-28T19:16:02.790Z,32.40
2024-02-28T19:18:30.300Z,32.60
2024-02-28T19:20:57.406Z,32.70
2024-02-28T19:23:24.398Z,32.80
2024-02-28T19:25:51.607Z,32.90
2024-02-28T19:28:18.488Z,33.10
2024-02-28T19:30:45.466Z,33.20
2024-02-28T19:33:17.070Z,33.20
2024-02-28T19:35:45.238Z,33.30
2024-02-28T19:38:12.268Z,33.50
2024-02-28T19:40:39.208Z,33.50
2024-02-28T19:43:07.085Z,33.50
2024-02-28T19:45:35.077Z,33.60
2024-02-28T19:48:02.218Z,33.70
2024-02-28T19:50:29.421Z,33.50
2024-02-28T19:52:56.365Z,33.40
2024-02-28T19:55:23.410Z,33.30
2024-02-28T19:57:50.551Z,33.30
2024-02-28T20:00:17.614Z,33.20
2024-02-28T20:02:44.540Z,33.00
2024-02-28T20:05:16.413Z,32.90
2024-02-28T20:07:44.553Z,32.80
2024-02-28T20:10:12.148Z,32.70
2024-02-28T20:12:39.724Z,32.70
2024-02-28T20:15:07.313Z,32.60
2024-02-28T20:17:34.348Z,32.70
2024-02-28T20:20:01.896Z,32.70
2024-02-28T20:22:29.425Z,32.90
2024-02-28T20:24:56.446Z,32.80
2024-02-28T20:27:23.497Z,32.90
2024-02-28T20:29:50.565Z,33.00
2024-02-28T20:32:17.542Z,33.10
2024-02-28T20:34:44.448Z,33.30
2024-02-28T20:37:11.454Z,33.40
2024-02-28T20:39:38.508Z,33.50
2024-02-28T20:42:05.967Z,33.70
2024-02-28T20:44:33.088Z,33.70
2024-02-28T20:46:59.989Z,33.70
2024-02-28T20:49:26.985Z,33.90
2024-02-28T20:51:56.411Z,33.90
2024-02-28T20:54:23.361Z,33.90
2024-02-28T20:56:56.027Z,33.90
2024-02-28T20:59:30.068Z,34.00
2024-02-28T21:01:58.293Z,33.90
2024-02-28T21:04:25.248Z,34.00
2024-02-28T21:06:52.257Z,34.00
2024-02-28T21:09:19.251Z,34.00
2024-02-28T21:11:46.248Z,34.00
2024-02-28T21:14:13.290Z,34.00
2024-02-28T21:16:40.312Z,33.90
2024-02-28T21:19:07.393Z,34.00
2024-02-28T21:24:30.556Z,34.20
2024-02-28T21:26:57.484Z,34.20
2024-02-28T21:29:24.869Z,34.30
2024-02-28T21:31:51.907Z,34.30
2024-02-28T21:34:20.403Z,34.40
2024-02-28T21:36:47.649Z,34.50
2024-02-28T21:39:15.228Z,34.50
2024-02-28T21:41:42.893Z,34.50
2024-02-28T21:44:09.902Z,34.60
2024-02-28T21:46:37.058Z,34.60
2024-02-28T21:49:10.424Z,34.70
2024-02-28T21:51:40.687Z,34.70
2024-02-28T21:54:07.749Z,34.60
2024-02-28T21:56:34.742Z,34.60
2024-02-28T21:59:01.890Z,34.60
2024-02-28T22:01:29.412Z,34.60
2024-02-28T22:03:56.542Z,34.70
2024-02-28T22:06:23.611Z,34.80
2024-02-28T22:08:50.661Z,34.80
2024-02-28T22:11:17.761Z,34.80
2024-02-28T22:13:44.739Z,34.80
2024-02-28T22:16:11.732Z,34.80
2024-02-28T22:18:38.802Z,34.80
2024-02-28T22:21:05.768Z,34.90
2024-02-28T22:23:34.533Z,34.80
2024-02-28T22:26:01.881Z,34.80
2024-02-28T22:28:29.267Z,34.80
2024-02-28T22:30:56.456Z,34.80
2024-02-28T22:33:23.402Z,35.50
2024-02-28T22:35:50.320Z,34.80
2024-02-28T22:38:17.588Z,34.90
2024-02-28T22:40:44.626Z,34.80
2024-02-28T22:43:11.588Z,34.80
2024-02-28T22:45:41.289Z,34.80
2024-02-28T22:48:08.628Z,34.80
2024-02-28T22:50:35.689Z,34.80
2024-02-28T22:53:02.751Z,34.90
2024-02-28T22:55:29.835Z,35.00
2024-02-28T22:57:56.851Z,35.00
2024-02-28T23:00:30.325Z,35.00
2024-02-28T23:02:58.637Z,35.10
2024-02-28T23:05:26.169Z,35.10
2024-02-28T23:07:53.190Z,35.20
2024-02-28T23:10:23.440Z,35.20
2024-02-28T23:12:50.955Z,35.30
2024-02-28T23:15:18.541Z,35.30
2024-02-28T23:17:46.938Z,35.30
2024-02-28T23:20:22.094Z,35.30
2024-02-28T23:22:49.165Z,35.30
2024-02-28T23:25:16.163Z,35.30
2024-02-28T23:27:43.436Z,35.40
2024-02-28T23:30:11.555Z,35.40
2024-02-28T23:32:38.551Z,35.40
2024-02-28T23:35:06.013Z,35.50
2024-02-28T23:37:33.372Z,35.60
2024-02-28T23:40:00.437Z,35.60
2024-02-28T23:42:27.991Z,35.70
2024-02-28T23:44:55.056Z,35.70
2024-02-28T23:47:22.192Z,35.70
2024-02-28T23:49:49.307Z,35.70
2024-02-28T23:52:16.392Z,35.80
2024-02-28T23:54:43.610Z,35.70
2024-02-28T23:57:10.581Z,35.60
2024-02-28T23:59:37.678Z,35.60
